sensor_id;sensor_type;location;lat;lon;timestamp;P1;durP1;ratioP1;P2;durP2;ratioP2
72639;SDS011;60683;51.730;8.762;2024-01-27T00:00:21;6.20;;;1.02;;
72639;SDS011;60683;51.730;8.762;2024-01-27T00:03:26;5.45;;;2.05;;
72639;SDS011;60683;51.730;8.762;2024-01-27T00:06:12;2.47;;;0.90;;
72639;SDS011;60683;51.730;8.762;2024-01-27T00:08:57;15.73;;;2.58;;
72639;SDS011;60683;51.730;8.762;2024-01-27T00:11:43;8.60;;;0.98;;
72639;SDS011;60683;51.730;8.762;2024-01-27T00:14:28;7.93;;;1.50;;
72639;SDS011;60683;51.730;8.762;2024-01-27T00:17:15;2.70;;;1.10;;
72639;SDS011;60683;51.730;8.762;2024-01-27T00:20:00;9.27;;;1.73;;
72639;SDS011;60683;51.730;8.762;2024-01-27T00:22:45;10.00;;;2.20;;
72639;SDS011;60683;51.730;8.762;2024-01-27T00:25:31;3.63;;;0.75;;
72639;SDS011;60683;51.730;8.762;2024-01-27T00:28:16;12.00;;;1.27;;
72639;SDS011;60683;51.730;8.762;2024-01-27T00:31:01;1.92;;;1.30;;
72639;SDS011;60683;51.730;8.762;2024-01-27T00:33:48;6.68;;;1.58;;
72639;SDS011;60683;51.730;8.762;2024-01-27T00:36:33;4.97;;;1.38;;
72639;SDS011;60683;51.730;8.762;2024-01-27T00:39:20;3.45;;;0.77;;
72639;SDS011;60683;51.730;8.762;2024-01-27T00:42:06;7.93;;;1.90;;
72639;SDS011;60683;51.730;8.762;2024-01-27T00:44:52;10.13;;;1.52;;
72639;SDS011;60683;51.730;8.762;2024-01-27T00:47:37;3.35;;;1.02;;
72639;SDS011;60683;51.730;8.762;2024-01-27T00:50:24;8.98;;;1.42;;
72639;SDS011;60683;51.730;8.762;2024-01-27T00:53:10;5.15;;;1.15;;
72639;SDS011;60683;51.730;8.762;2024-01-27T00:55:55;7.38;;;1.35;;
72639;SDS011;60683;51.730;8.762;2024-01-27T00:58:41;9.60;;;1.90;;
72639;SDS011;60683;51.730;8.762;2024-01-27T01:01:26;10.98;;;1.42;;
72639;SDS011;60683;51.730;8.762;2024-01-27T01:04:11;3.22;;;1.10;;
72639;SDS011;60683;51.730;8.762;2024-01-27T01:06:58;4.32;;;1.33;;
72639;SDS011;60683;51.730;8.762;2024-01-27T01:09:44;9.00;;;1.65;;
72639;SDS011;60683;51.730;8.762;2024-01-27T01:12:29;5.63;;;1.15;;
72639;SDS011;60683;51.730;8.762;2024-01-27T01:15:14;4.43;;;1.42;;
72639;SDS011;60683;51.730;8.762;2024-01-27T01:17:59;11.82;;;1.20;;
72639;SDS011;60683;51.730;8.762;2024-01-27T01:20:45;6.07;;;1.52;;
72639;SDS011;60683;51.730;8.762;2024-01-27T01:23:32;7.85;;;2.50;;
72639;SDS011;60683;51.730;8.762;2024-01-27T01:26:17;8.13;;;2.28;;
72639;SDS011;60683;51.730;8.762;2024-01-27T01:29:03;4.88;;;1.58;;
72639;SDS011;60683;51.730;8.762;2024-01-27T01:31:48;8.18;;;1.40;;
72639;SDS011;60683;51.730;8.762;2024-01-27T01:34:34;12.38;;;2.78;;
72639;SDS011;60683;51.730;8.762;2024-01-27T01:37:19;9.00;;;2.42;;
72639;SDS011;60683;51.730;8.762;2024-01-27T01:40:06;2.22;;;0.90;;
72639;SDS011;60683;51.730;8.762;2024-01-27T01:42:52;3.10;;;1.48;;
72639;SDS011;60683;51.730;8.762;2024-01-27T01:45:38;6.57;;;1.25;;
72639;SDS011;60683;51.730;8.762;2024-01-27T01:48:24;4.18;;;1.40;;
72639;SDS011;60683;51.730;8.762;2024-01-27T01:51:09;5.30;;;2.05;;
72639;SDS011;60683;51.730;8.762;2024-01-27T01:53:57;14.40;;;3.65;;
72639;SDS011;60683;51.730;8.762;2024-01-27T01:56:44;8.00;;;2.03;;
72639;SDS011;60683;51.730;8.762;2024-01-27T01:59:30;9.55;;;1.95;;
72639;SDS011;60683;51.730;8.762;2024-01-27T02:02:15;4.75;;;1.92;;
72639;SDS011;60683;51.730;8.762;2024-01-27T02:05:00;10.02;;;3.15;;
72639;SDS011;60683;51.730;8.762;2024-01-27T02:07:46;4.40;;;1.55;;
72639;SDS011;60683;51.730;8.762;2024-01-27T02:10:31;13.52;;;3.15;;
72639;SDS011;60683;51.730;8.762;2024-01-27T02:13:22;5.60;;;2.53;;
72639;SDS011;60683;51.730;8.762;2024-01-27T02:18:53;4.80;;;1.83;;
72639;SDS011;60683;51.730;8.762;2024-01-27T02:21:38;9.25;;;2.83;;
72639;SDS011;60683;51.730;8.762;2024-01-27T02:24:25;6.65;;;2.70;;
72639;SDS011;60683;51.730;8.762;2024-01-27T02:29:58;6.63;;;1.67;;
72639;SDS011;60683;51.730;8.762;2024-01-27T02:32:43;6.70;;;1.45;;
72639;SDS011;60683;51.730;8.762;2024-01-27T02:35:28;11.90;;;3.08;;
72639;SDS011;60683;51.730;8.762;2024-01-27T02:38:14;5.05;;;2.95;;
72639;SDS011;60683;51.730;8.762;2024-01-27T02:41:01;6.22;;;1.95;;
72639;SDS011;60683;51.730;8.762;2024-01-27T02:43:46;9.23;;;2.10;;
72639;SDS011;60683;51.730;8.762;2024-01-27T02:46:31;5.00;;;2.63;;
72639;SDS011;60683;51.730;8.762;2024-01-27T02:49:16;9.25;;;3.55;;
72639;SDS011;60683;51.730;8.762;2024-01-27T02:52:01;10.80;;;4.10;;
72639;SDS011;60683;51.730;8.762;2024-01-27T02:54:46;8.70;;;2.72;;
72639;SDS011;60683;51.730;8.762;2024-01-27T02:57:33;6.60;;;3.33;;
72639;SDS011;60683;51.730;8.762;2024-01-27T03:00:18;8.23;;;3.60;;
72639;SDS011;60683;51.730;8.762;2024-01-27T03:03:04;4.85;;;3.17;;
72639;SDS011;60683;51.730;8.762;2024-01-27T03:05:49;8.73;;;2.58;;
72639;SDS011;60683;51.730;8.762;2024-01-27T03:08:34;11.75;;;5.32;;
72639;SDS011;60683;51.730;8.762;2024-01-27T03:11:20;7.45;;;2.97;;
72639;SDS011;60683;51.730;8.762;2024-01-27T03:14:07;8.38;;;3.50;;
72639;SDS011;60683;51.730;8.762;2024-01-27T03:17:00;5.35;;;3.10;;
72639;SDS011;60683;51.730;8.762;2024-01-27T03:19:45;8.27;;;3.70;;
72639;SDS011;60683;51.730;8.762;2024-01-27T03:22:31;12.55;;;3.50;;
72639;SDS011;60683;51.730;8.762;2024-01-27T03:25:16;6.72;;;2.90;;
72639;SDS011;60683;51.730;8.762;2024-01-27T03:28:02;5.97;;;3.08;;
72639;SDS011;60683;51.730;8.762;2024-01-27T03:30:49;7.45;;;3.45;;
72639;SDS011;60683;51.730;8.762;2024-01-27T03:33:34;8.35;;;3.95;;
72639;SDS011;60683;51.730;8.762;2024-01-27T03:36:19;13.20;;;4.88;;
72639;SDS011;60683;51.730;8.762;2024-01-27T03:39:05;5.60;;;3.03;;
72639;SDS011;60683;51.730;8.762;2024-01-27T03:41:52;8.40;;;3.78;;
72639;SDS011;60683;51.730;8.762;2024-01-27T03:44:37;10.05;;;3.15;;
72639;SDS011;60683;51.730;8.762;2024-01-27T03:47:24;11.32;;;3.92;;
72639;SDS011;60683;51.730;8.762;2024-01-27T03:50:10;11.82;;;4.00;;
72639;SDS011;60683;51.730;8.762;2024-01-27T03:52:55;12.63;;;3.47;;
72639;SDS011;60683;51.730;8.762;2024-01-27T03:55:40;8.90;;;4.05;;
72639;SDS011;60683;51.730;8.762;2024-01-27T03:58:25;7.53;;;3.83;;
72639;SDS011;60683;51.730;8.762;2024-01-27T04:01:10;16.55;;;4.50;;
72639;SDS011;60683;51.730;8.762;2024-01-27T04:03:57;15.65;;;4.15;;
72639;SDS011;60683;51.730;8.762;2024-01-27T04:06:42;7.50;;;3.40;;
72639;SDS011;60683;51.730;8.762;2024-01-27T04:09:27;9.25;;;4.45;;
72639;SDS011;60683;51.730;8.762;2024-01-27T04:12:12;13.75;;;4.32;;
72639;SDS011;60683;51.730;8.762;2024-01-27T04:14:58;14.40;;;4.47;;
72639;SDS011;60683;51.730;8.762;2024-01-27T04:17:43;15.73;;;4.65;;
72639;SDS011;60683;51.730;8.762;2024-01-27T04:20:30;10.38;;;3.90;;
72639;SDS011;60683;51.730;8.762;2024-01-27T04:23:15;15.02;;;4.13;;
72639;SDS011;60683;51.730;8.762;2024-01-27T04:26:01;11.65;;;5.03;;
72639;SDS011;60683;51.730;8.762;2024-01-27T04:28:46;19.50;;;4.85;;
72639;SDS011;60683;51.730;8.762;2024-01-27T04:31:31;11.48;;;4.35;;
72639;SDS011;60683;51.730;8.762;2024-01-27T04:34:16;10.20;;;3.78;;
72639;SDS011;60683;51.730;8.762;2024-01-27T04:37:04;10.65;;;4.30;;
72639;SDS011;60683;51.730;8.762;2024-01-27T04:39:49;8.45;;;3.97;;
72639;SDS011;60683;51.730;8.762;2024-01-27T04:42:35;8.18;;;4.70;;
72639;SDS011;60683;51.730;8.762;2024-01-27T04:45:23;7.65;;;3.78;;
72639;SDS011;60683;51.730;8.762;2024-01-27T04:48:08;8.27;;;4.35;;
72639;SDS011;60683;51.730;8.762;2024-01-27T04:50:54;13.57;;;4.22;;
72639;SDS011;60683;51.730;8.762;2024-01-27T04:53:42;12.43;;;3.80;;
72639;SDS011;60683;51.730;8.762;2024-01-27T04:56:27;9.00;;;4.18;;
72639;SDS011;60683;51.730;8.762;2024-01-27T04:59:13;12.88;;;4.60;;
72639;SDS011;60683;51.730;8.762;2024-01-27T05:01:58;7.97;;;4.55;;
72639;SDS011;60683;51.730;8.762;2024-01-27T05:04:43;11.55;;;4.53;;
72639;SDS011;60683;51.730;8.762;2024-01-27T05:07:28;11.38;;;4.40;;
72639;SDS011;60683;51.730;8.762;2024-01-27T05:10:16;9.13;;;4.45;;
72639;SDS011;60683;51.730;8.762;2024-01-27T05:13:01;8.52;;;4.13;;
72639;SDS011;60683;51.730;8.762;2024-01-27T05:15:47;18.95;;;5.90;;
72639;SDS011;60683;51.730;8.762;2024-01-27T05:18:32;10.85;;;3.88;;
72639;SDS011;60683;51.730;8.762;2024-01-27T05:21:17;13.27;;;4.72;;
72639;SDS011;60683;51.730;8.762;2024-01-27T05:24:03;9.13;;;2.92;;
72639;SDS011;60683;51.730;8.762;2024-01-27T05:26:50;9.25;;;3.72;;
72639;SDS011;60683;51.730;8.762;2024-01-27T05:29:36;14.65;;;5.38;;
72639;SDS011;60683;51.730;8.762;2024-01-27T05:32:22;11.93;;;3.55;;
72639;SDS011;60683;51.730;8.762;2024-01-27T05:35:08;11.15;;;4.22;;
72639;SDS011;60683;51.730;8.762;2024-01-27T05:37:54;12.75;;;5.75;;
72639;SDS011;60683;51.730;8.762;2024-01-27T05:40:39;9.18;;;3.80;;
72639;SDS011;60683;51.730;8.762;2024-01-27T05:43:26;7.10;;;3.50;;
72639;SDS011;60683;51.730;8.762;2024-01-27T05:46:12;13.20;;;3.72;;
72639;SDS011;60683;51.730;8.762;2024-01-27T05:48:57;11.15;;;4.50;;
72639;SDS011;60683;51.730;8.762;2024-01-27T05:51:47;10.88;;;4.25;;
72639;SDS011;60683;51.730;8.762;2024-01-27T05:54:34;11.57;;;4.80;;
72639;SDS011;60683;51.730;8.762;2024-01-27T05:57:20;8.63;;;4.00;;
72639;SDS011;60683;51.730;8.762;2024-01-27T06:00:07;9.70;;;4.30;;
72639;SDS011;60683;51.730;8.762;2024-01-27T06:02:54;7.55;;;3.72;;
72639;SDS011;60683;51.730;8.762;2024-01-27T06:05:40;15.00;;;4.15;;
72639;SDS011;60683;51.730;8.762;2024-01-27T06:08:26;12.90;;;4.90;;
72639;SDS011;60683;51.730;8.762;2024-01-27T06:11:11;12.85;;;4.60;;
72639;SDS011;60683;51.730;8.762;2024-01-27T06:13:56;7.75;;;4.40;;
72639;SDS011;60683;51.730;8.762;2024-01-27T06:16:44;8.20;;;4.32;;
72639;SDS011;60683;51.730;8.762;2024-01-27T06:19:29;12.88;;;5.03;;
72639;SDS011;60683;51.730;8.762;2024-01-27T06:22:15;7.10;;;3.90;;
72639;SDS011;60683;51.730;8.762;2024-01-27T06:25:01;9.35;;;4.55;;
72639;SDS011;60683;51.730;8.762;2024-01-27T06:27:46;10.50;;;3.92;;
72639;SDS011;60683;51.730;8.762;2024-01-27T06:30:32;7.45;;;3.97;;
72639;SDS011;60683;51.730;8.762;2024-01-27T06:33:19;8.65;;;3.85;;
72639;SDS011;60683;51.730;8.762;2024-01-27T06:36:04;7.72;;;3.55;;
72639;SDS011;60683;51.730;8.762;2024-01-27T06:38:50;18.88;;;4.30;;
72639;SDS011;60683;51.730;8.762;2024-01-27T06:41:36;9.00;;;4.50;;
72639;SDS011;60683;51.730;8.762;2024-01-27T06:44:21;10.27;;;3.90;;
72639;SDS011;60683;51.730;8.762;2024-01-27T06:47:06;13.15;;;4.38;;
72639;SDS011;60683;51.730;8.762;2024-01-27T06:49:53;15.02;;;4.78;;
72639;SDS011;60683;51.730;8.762;2024-01-27T06:52:39;7.40;;;4.28;;
72639;SDS011;60683;51.730;8.762;2024-01-27T06:55:25;11.68;;;4.15;;
72639;SDS011;60683;51.730;8.762;2024-01-27T06:58:11;9.45;;;4.60;;
72639;SDS011;60683;51.730;8.762;2024-01-27T07:00:56;7.82;;;3.50;;
72639;SDS011;60683;51.730;8.762;2024-01-27T07:03:42;13.20;;;5.57;;
72639;SDS011;60683;51.730;8.762;2024-01-27T07:06:29;11.55;;;4.95;;
72639;SDS011;60683;51.730;8.762;2024-01-27T07:09:14;9.15;;;4.15;;
72639;SDS011;60683;51.730;8.762;2024-01-27T07:11:59;7.82;;;3.67;;
72639;SDS011;60683;51.730;8.762;2024-01-27T07:14:45;14.50;;;5.55;;
72639;SDS011;60683;51.730;8.762;2024-01-27T07:17:30;10.27;;;4.45;;
72639;SDS011;60683;51.730;8.762;2024-01-27T07:20:15;10.52;;;3.95;;
72639;SDS011;60683;51.730;8.762;2024-01-27T07:23:02;9.45;;;4.28;;
72639;SDS011;60683;51.730;8.762;2024-01-27T07:25:48;10.15;;;5.00;;
72639;SDS011;60683;51.730;8.762;2024-01-27T07:28:34;11.30;;;4.63;;
72639;SDS011;60683;51.730;8.762;2024-01-27T07:31:20;14.35;;;4.35;;
72639;SDS011;60683;51.730;8.762;2024-01-27T07:34:08;8.32;;;3.72;;
72639;SDS011;60683;51.730;8.762;2024-01-27T07:36:53;15.32;;;4.22;;
72639;SDS011;60683;51.730;8.762;2024-01-27T07:39:42;5.95;;;3.28;;
72639;SDS011;60683;51.730;8.762;2024-01-27T07:42:28;17.65;;;4.80;;
72639;SDS011;60683;51.730;8.762;2024-01-27T07:45:14;8.43;;;4.35;;
72639;SDS011;60683;51.730;8.762;2024-01-27T07:47:59;9.52;;;4.05;;
72639;SDS011;60683;51.730;8.762;2024-01-27T07:50:46;7.60;;;4.55;;
72639;SDS011;60683;51.730;8.762;2024-01-27T07:53:32;12.70;;;4.15;;
72639;SDS011;60683;51.730;8.762;2024-01-27T07:56:19;9.57;;;4.32;;
72639;SDS011;60683;51.730;8.762;2024-01-27T07:59:04;14.02;;;4.75;;
72639;SDS011;60683;51.730;8.762;2024-01-27T08:01:52;11.05;;;4.47;;
72639;SDS011;60683;51.730;8.762;2024-01-27T08:04:38;9.95;;;4.38;;
72639;SDS011;60683;51.730;8.762;2024-01-27T08:07:24;13.85;;;4.22;;
72639;SDS011;60683;51.730;8.762;2024-01-27T08:10:09;12.05;;;4.75;;
72639;SDS011;60683;51.730;8.762;2024-01-27T08:12:56;9.20;;;5.55;;
72639;SDS011;60683;51.730;8.762;2024-01-27T08:15:42;10.68;;;4.30;;
72639;SDS011;60683;51.730;8.762;2024-01-27T08:18:27;9.50;;;5.45;;
72639;SDS011;60683;51.730;8.762;2024-01-27T08:21:13;9.93;;;4.88;;
72639;SDS011;60683;51.730;8.762;2024-01-27T08:23:59;9.65;;;6.00;;
72639;SDS011;60683;51.730;8.762;2024-01-27T08:26:44;18.35;;;6.57;;
72639;SDS011;60683;51.730;8.762;2024-01-27T08:29:32;19.40;;;6.82;;
72639;SDS011;60683;51.730;8.762;2024-01-27T08:32:18;13.45;;;6.68;;
72639;SDS011;60683;51.730;8.762;2024-01-27T08:35:04;11.18;;;5.35;;
72639;SDS011;60683;51.730;8.762;2024-01-27T08:37:49;12.32;;;6.63;;
72639;SDS011;60683;51.730;8.762;2024-01-27T08:40:35;10.88;;;6.53;;
72639;SDS011;60683;51.730;8.762;2024-01-27T08:43:20;12.45;;;5.38;;
72639;SDS011;60683;51.730;8.762;2024-01-27T08:46:08;16.40;;;7.25;;
72639;SDS011;60683;51.730;8.762;2024-01-27T08:48:55;17.40;;;6.85;;
72639;SDS011;60683;51.730;8.762;2024-01-27T08:51:40;12.05;;;5.80;;
72639;SDS011;60683;51.730;8.762;2024-01-27T08:54:25;14.48;;;5.07;;
72639;SDS011;60683;51.730;8.762;2024-01-27T08:57:11;13.82;;;5.80;;
72639;SDS011;60683;51.730;8.762;2024-01-27T08:59:56;11.23;;;5.78;;
72639;SDS011;60683;51.730;8.762;2024-01-27T09:02:43;11.65;;;7.68;;
72639;SDS011;60683;51.730;8.762;2024-01-27T09:05:28;13.55;;;7.15;;
72639;SDS011;60683;51.730;8.762;2024-01-27T09:08:14;15.35;;;6.63;;
72639;SDS011;60683;51.730;8.762;2024-01-27T09:10:59;14.95;;;6.13;;
72639;SDS011;60683;51.730;8.762;2024-01-27T09:13:45;30.05;;;6.13;;
72639;SDS011;60683;51.730;8.762;2024-01-27T09:16:30;9.80;;;5.07;;
72639;SDS011;60683;51.730;8.762;2024-01-27T09:19:17;9.55;;;4.93;;
72639;SDS011;60683;51.730;8.762;2024-01-27T09:22:04;13.32;;;3.97;;
72639;SDS011;60683;51.730;8.762;2024-01-27T09:24:50;9.48;;;3.53;;
72639;SDS011;60683;51.730;8.762;2024-01-27T09:27:36;4.63;;;1.48;;
72639;SDS011;60683;51.730;8.762;2024-01-27T09:30:22;7.28;;;2.67;;
72639;SDS011;60683;51.730;8.762;2024-01-27T09:33:07;8.43;;;2.40;;
72639;SDS011;60683;51.730;8.762;2024-01-27T09:35:53;6.32;;;1.00;;
72639;SDS011;60683;51.730;8.762;2024-01-27T09:38:39;8.63;;;1.98;;
72639;SDS011;60683;51.730;8.762;2024-01-27T09:41:24;7.05;;;1.70;;
72639;SDS011;60683;51.730;8.762;2024-01-27T09:44:12;2.47;;;1.05;;
72639;SDS011;60683;51.730;8.762;2024-01-27T09:47:02;4.35;;;2.22;;
72639;SDS011;60683;51.730;8.762;2024-01-27T09:49:48;6.40;;;1.35;;
72639;SDS011;60683;51.730;8.762;2024-01-27T09:52:36;8.98;;;1.83;;
72639;SDS011;60683;51.730;8.762;2024-01-27T09:55:22;7.65;;;1.90;;
72639;SDS011;60683;51.730;8.762;2024-01-27T09:58:08;4.13;;;1.52;;
72639;SDS011;60683;51.730;8.762;2024-01-27T10:00:53;6.40;;;2.17;;
72639;SDS011;60683;51.730;8.762;2024-01-27T10:03:40;6.03;;;2.30;;
72639;SDS011;60683;51.730;8.762;2024-01-27T10:06:27;2.55;;;1.23;;
72639;SDS011;60683;51.730;8.762;2024-01-27T10:09:14;11.27;;;2.22;;
72639;SDS011;60683;51.730;8.762;2024-01-27T10:11:59;17.20;;;2.88;;
72639;SDS011;60683;51.730;8.762;2024-01-27T10:14:46;3.58;;;1.10;;
72639;SDS011;60683;51.730;8.762;2024-01-27T10:17:32;8.73;;;2.08;;
72639;SDS011;60683;51.730;8.762;2024-01-27T10:20:20;5.55;;;2.70;;
72639;SDS011;60683;51.730;8.762;2024-01-27T10:23:11;7.88;;;1.83;;
72639;SDS011;60683;51.730;8.762;2024-01-27T10:25:58;7.07;;;2.22;;
72639;SDS011;60683;51.730;8.762;2024-01-27T10:28:51;7.97;;;1.90;;
72639;SDS011;60683;51.730;8.762;2024-01-27T10:31:37;5.20;;;1.65;;
72639;SDS011;60683;51.730;8.762;2024-01-27T10:34:23;7.95;;;1.90;;
72639;SDS011;60683;51.730;8.762;2024-01-27T10:37:09;11.45;;;2.85;;
72639;SDS011;60683;51.730;8.762;2024-01-27T10:40:00;5.95;;;2.35;;
72639;SDS011;60683;51.730;8.762;2024-01-27T10:42:48;4.75;;;2.40;;
72639;SDS011;60683;51.730;8.762;2024-01-27T10:45:44;9.35;;;2.70;;
72639;SDS011;60683;51.730;8.762;2024-01-27T10:48:29;6.50;;;1.27;;
72639;SDS011;60683;51.730;8.762;2024-01-27T10:51:15;5.18;;;1.70;;
72639;SDS011;60683;51.730;8.762;2024-01-27T10:54:07;5.85;;;2.17;;
72639;SDS011;60683;51.730;8.762;2024-01-27T10:56:58;8.13;;;2.17;;
72639;SDS011;60683;51.730;8.762;2024-01-27T10:59:44;5.35;;;1.90;;
72639;SDS011;60683;51.730;8.762;2024-01-27T11:02:32;8.63;;;2.30;;
72639;SDS011;60683;51.730;8.762;2024-01-27T11:05:19;7.10;;;1.98;;
72639;SDS011;60683;51.730;8.762;2024-01-27T11:08:06;8.90;;;1.88;;
72639;SDS011;60683;51.730;8.762;2024-01-27T11:10:54;6.07;;;1.73;;
72639;SDS011;60683;51.730;8.762;2024-01-27T11:13:40;2.85;;;1.42;;
72639;SDS011;60683;51.730;8.762;2024-01-27T11:16:27;5.53;;;1.67;;
72639;SDS011;60683;51.730;8.762;2024-01-27T11:19:13;5.38;;;1.85;;
72639;SDS011;60683;51.730;8.762;2024-01-27T11:21:59;6.18;;;1.83;;
72639;SDS011;60683;51.730;8.762;2024-01-27T11:24:46;10.15;;;2.08;;
72639;SDS011;60683;51.730;8.762;2024-01-27T11:27:31;10.45;;;2.42;;
72639;SDS011;60683;51.730;8.762;2024-01-27T11:30:26;4.45;;;1.17;;
72639;SDS011;60683;51.730;8.762;2024-01-27T11:33:18;5.22;;;1.48;;
72639;SDS011;60683;51.730;8.762;2024-01-27T11:36:04;6.63;;;2.10;;
72639;SDS011;60683;51.730;8.762;2024-01-27T11:41:36;7.10;;;1.38;;
72639;SDS011;60683;51.730;8.762;2024-01-27T11:44:24;2.95;;;0.98;;
72639;SDS011;60683;51.730;8.762;2024-01-27T11:47:14;5.32;;;1.95;;
72639;SDS011;60683;51.730;8.762;2024-01-27T11:50:02;4.55;;;1.73;;
72639;SDS011;60683;51.730;8.762;2024-01-27T11:52:48;4.63;;;0.85;;
72639;SDS011;60683;51.730;8.762;2024-01-27T11:55:34;8.95;;;1.67;;
72639;SDS011;60683;51.730;8.762;2024-01-27T11:58:19;5.57;;;1.63;;
72639;SDS011;60683;51.730;8.762;2024-01-27T12:01:05;4.00;;;1.70;;
72639;SDS011;60683;51.730;8.762;2024-01-27T12:03:50;4.57;;;1.40;;
72639;SDS011;60683;51.730;8.762;2024-01-27T12:06:37;7.35;;;1.70;;
72639;SDS011;60683;51.730;8.762;2024-01-27T12:09:24;5.80;;;1.70;;
72639;SDS011;60683;51.730;8.762;2024-01-27T12:12:10;9.02;;;1.25;;
72639;SDS011;60683;51.730;8.762;2024-01-27T12:14:58;8.13;;;1.67;;
72639;SDS011;60683;51.730;8.762;2024-01-27T12:17:49;5.22;;;1.58;;
72639;SDS011;60683;51.730;8.762;2024-01-27T12:20:34;4.40;;;1.00;;
72639;SDS011;60683;51.730;8.762;2024-01-27T12:23:21;4.68;;;1.15;;
72639;SDS011;60683;51.730;8.762;2024-01-27T12:26:13;7.22;;;1.58;;
72639;SDS011;60683;51.730;8.762;2024-01-27T12:28:59;5.30;;;1.45;;
72639;SDS011;60683;51.730;8.762;2024-01-27T12:31:44;7.10;;;1.30;;
72639;SDS011;60683;51.730;8.762;2024-01-27T12:34:30;11.32;;;1.50;;
72639;SDS011;60683;51.730;8.762;2024-01-27T12:37:15;6.78;;;1.80;;
72639;SDS011;60683;51.730;8.762;2024-01-27T12:40:02;6.18;;;1.60;;
72639;SDS011;60683;51.730;8.762;2024-01-27T12:42:48;8.88;;;1.92;;
72639;SDS011;60683;51.730;8.762;2024-01-27T12:45:33;1.85;;;1.00;;
72639;SDS011;60683;51.730;8.762;2024-01-27T12:48:18;8.30;;;1.73;;
72639;SDS011;60683;51.730;8.762;2024-01-27T12:51:04;7.00;;;1.70;;
72639;SDS011;60683;51.730;8.762;2024-01-27T12:53:49;4.78;;;1.65;;
72639;SDS011;60683;51.730;8.762;2024-01-27T12:56:36;3.55;;;1.48;;
72639;SDS011;60683;51.730;8.762;2024-01-27T12:59:22;4.82;;;1.30;;
72639;SDS011;60683;51.730;8.762;2024-01-27T13:02:08;6.90;;;2.10;;
72639;SDS011;60683;51.730;8.762;2024-01-27T13:04:53;4.30;;;1.27;;
72639;SDS011;60683;51.730;8.762;2024-01-27T13:07:38;3.70;;;0.95;;
72639;SDS011;60683;51.730;8.762;2024-01-27T13:10:24;10.55;;;1.92;;
72639;SDS011;60683;51.730;8.762;2024-01-27T13:13:11;8.10;;;1.55;;
72639;SDS011;60683;51.730;8.762;2024-01-27T13:15:56;4.60;;;1.45;;
72639;SDS011;60683;51.730;8.762;2024-01-27T13:18:42;7.88;;;1.75;;
72639;SDS011;60683;51.730;8.762;2024-01-27T13:21:28;7.88;;;1.63;;
72639;SDS011;60683;51.730;8.762;2024-01-27T13:24:14;6.13;;;1.52;;
72639;SDS011;60683;51.730;8.762;2024-01-27T13:26:59;3.40;;;0.95;;
72639;SDS011;60683;51.730;8.762;2024-01-27T13:29:46;6.88;;;0.88;;
72639;SDS011;60683;51.730;8.762;2024-01-27T13:32:32;6.45;;;1.45;;
72639;SDS011;60683;51.730;8.762;2024-01-27T13:35:17;4.45;;;1.10;;
72639;SDS011;60683;51.730;8.762;2024-01-27T13:38:02;5.75;;;1.23;;
72639;SDS011;60683;51.730;8.762;2024-01-27T13:40:49;8.02;;;2.10;;
72639;SDS011;60683;51.730;8.762;2024-01-27T13:43:35;7.03;;;1.45;;
72639;SDS011;60683;51.730;8.762;2024-01-27T13:46:21;9.07;;;1.58;;
72639;SDS011;60683;51.730;8.762;2024-01-27T13:49:07;3.20;;;1.00;;
72639;SDS011;60683;51.730;8.762;2024-01-27T13:51:53;3.05;;;0.85;;
72639;SDS011;60683;51.730;8.762;2024-01-27T13:54:38;5.40;;;1.60;;
72639;SDS011;60683;51.730;8.762;2024-01-27T13:57:24;4.32;;;0.98;;
72639;SDS011;60683;51.730;8.762;2024-01-27T14:00:09;4.97;;;2.00;;
72639;SDS011;60683;51.730;8.762;2024-01-27T14:02:59;6.85;;;1.02;;
72639;SDS011;60683;51.730;8.762;2024-01-27T14:05:45;12.40;;;2.42;;
72639;SDS011;60683;51.730;8.762;2024-01-27T14:08:31;10.75;;;1.40;;
72639;SDS011;60683;51.730;8.762;2024-01-27T14:11:17;4.32;;;1.08;;
72639;SDS011;60683;51.730;8.762;2024-01-27T14:14:02;8.45;;;1.50;;
72639;SDS011;60683;51.730;8.762;2024-01-27T14:16:48;5.93;;;1.70;;
72639;SDS011;60683;51.730;8.762;2024-01-27T14:19:35;8.48;;;1.60;;
72639;SDS011;60683;51.730;8.762;2024-01-27T14:25:06;7.45;;;1.83;;
72639;SDS011;60683;51.730;8.762;2024-01-27T14:27:52;2.92;;;0.80;;
72639;SDS011;60683;51.730;8.762;2024-01-27T14:30:38;5.72;;;1.40;;
72639;SDS011;60683;51.730;8.762;2024-01-27T14:33:23;5.50;;;1.20;;
72639;SDS011;60683;51.730;8.762;2024-01-27T14:36:11;5.78;;;1.52;;
72639;SDS011;60683;51.730;8.762;2024-01-27T14:38:56;6.97;;;1.50;;
72639;SDS011;60683;51.730;8.762;2024-01-27T14:41:42;6.93;;;1.73;;
72639;SDS011;60683;51.730;8.762;2024-01-27T14:44:27;4.38;;;1.25;;
72639;SDS011;60683;51.730;8.762;2024-01-27T14:47:12;4.70;;;1.70;;
72639;SDS011;60683;51.730;8.762;2024-01-27T14:49:57;4.82;;;1.30;;
72639;SDS011;60683;51.730;8.762;2024-01-27T14:52:44;7.28;;;1.60;;
72639;SDS011;60683;51.730;8.762;2024-01-27T14:55:30;3.95;;;1.27;;
72639;SDS011;60683;51.730;8.762;2024-01-27T14:58:17;4.15;;;0.95;;
72639;SDS011;60683;51.730;8.762;2024-01-27T15:01:02;5.63;;;1.85;;
72639;SDS011;60683;51.730;8.762;2024-01-27T15:03:48;8.30;;;1.50;;
72639;SDS011;60683;51.730;8.762;2024-01-27T15:06:33;8.45;;;1.98;;
72639;SDS011;60683;51.730;8.762;2024-01-27T15:09:20;7.80;;;1.95;;
72639;SDS011;60683;51.730;8.762;2024-01-27T15:12:06;4.63;;;1.40;;
72639;SDS011;60683;51.730;8.762;2024-01-27T15:14:52;6.05;;;1.17;;
72639;SDS011;60683;51.730;8.762;2024-01-27T15:17:37;5.45;;;2.47;;
72639;SDS011;60683;51.730;8.762;2024-01-27T15:20:23;3.97;;;1.13;;
72639;SDS011;60683;51.730;8.762;2024-01-27T15:23:09;5.55;;;1.15;;
72639;SDS011;60683;51.730;8.762;2024-01-27T15:25:56;13.13;;;2.05;;
72639;SDS011;60683;51.730;8.762;2024-01-27T15:28:43;4.85;;;1.35;;
72639;SDS011;60683;51.730;8.762;2024-01-27T15:31:28;6.70;;;1.20;;
72639;SDS011;60683;51.730;8.762;2024-01-27T15:34:14;10.13;;;1.73;;
72639;SDS011;60683;51.730;8.762;2024-01-27T15:36:59;9.05;;;2.65;;
72639;SDS011;60683;51.730;8.762;2024-01-27T15:39:45;8.65;;;1.92;;
72639;SDS011;60683;51.730;8.762;2024-01-27T15:42:32;7.13;;;1.90;;
72639;SDS011;60683;51.730;8.762;2024-01-27T15:45:18;9.02;;;1.77;;
72639;SDS011;60683;51.730;8.762;2024-01-27T15:48:03;4.80;;;1.55;;
72639;SDS011;60683;51.730;8.762;2024-01-27T15:50:49;7.57;;;1.42;;
72639;SDS011;60683;51.730;8.762;2024-01-27T15:53:35;8.10;;;1.83;;
72639;SDS011;60683;51.730;8.762;2024-01-27T15:56:20;7.07;;;1.30;;
72639;SDS011;60683;51.730;8.762;2024-01-27T15:59:08;5.53;;;1.33;;
72639;SDS011;60683;51.730;8.762;2024-01-27T16:01:53;4.20;;;1.45;;
72639;SDS011;60683;51.730;8.762;2024-01-27T16:04:39;8.95;;;1.63;;
72639;SDS011;60683;51.730;8.762;2024-01-27T16:07:25;9.13;;;2.03;;
72639;SDS011;60683;51.730;8.762;2024-01-27T16:10:11;10.95;;;1.70;;
72639;SDS011;60683;51.730;8.762;2024-01-27T16:12:58;8.85;;;1.58;;
72639;SDS011;60683;51.730;8.762;2024-01-27T16:15:45;4.55;;;1.55;;
72639;SDS011;60683;51.730;8.762;2024-01-27T16:18:31;6.28;;;1.85;;
72639;SDS011;60683;51.730;8.762;2024-01-27T16:21:16;6.65;;;2.25;;
72639;SDS011;60683;51.730;8.762;2024-01-27T16:24:01;5.88;;;1.48;;
72639;SDS011;60683;51.730;8.762;2024-01-27T16:26:48;8.15;;;1.63;;
72639;SDS011;60683;51.730;8.762;2024-01-27T16:29:35;9.50;;;2.45;;
72639;SDS011;60683;51.730;8.762;2024-01-27T16:32:21;7.55;;;2.25;;
72639;SDS011;60683;51.730;8.762;2024-01-27T16:35:07;6.95;;;1.67;;
72639;SDS011;60683;51.730;8.762;2024-01-27T16:37:53;8.38;;;1.95;;
72639;SDS011;60683;51.730;8.762;2024-01-27T16:40:38;4.63;;;1.67;;
72639;SDS011;60683;51.730;8.762;2024-01-27T16:43:24;9.20;;;2.28;;
72639;SDS011;60683;51.730;8.762;2024-01-27T16:46:10;8.13;;;2.15;;